createdAt,value
2019-02-05T00:00:54.405Z,86.61
2019-02-05T00:03:22.390Z,86.65
2019-02-05T00:05:50.319Z,86.60
2019-02-05T00:08:18.087Z,86.63
2019-02-05T00:10:48.921Z,86.53
2019-02-05T00:13:18.276Z,86.47
2019-02-05T00:15:45.598Z,86.67
2019-02-05T00:18:12.780Z,86.86
2019-02-05T00:20:39.880Z,86.66
2019-02-05T00:23:09.096Z,86.50
2019-02-05T00:25:37.295Z,86.53
2019-02-05T00:28:04.808Z,86.45
2019-02-05T00:30:32.999Z,86.39
2019-02-05T00:33:00.131Z,86.46
2019-02-05T00:35:28.434Z,86.42
2019-02-05T00:37:56.675Z,86.32
2019-02-05T00:40:24.083Z,86.20
2019-02-05T00:42:51.336Z,86.17
2019-02-05T00:45:19.347Z,86.24
2019-02-05T00:47:46.664Z,86.45
2019-02-05T00:50:13.982Z,86.47
2019-02-05T00:52:41.084Z,86.34
2019-02-05T00:55:09.446Z,86.31
2019-02-05T00:57:36.557Z,86.23
2019-02-05T01:00:09.047Z,86.41
2019-02-05T01:02:36.550Z,86.47
2019-02-05T01:05:04.811Z,86.50
2019-02-05T01:07:31.934Z,86.42
2019-02-05T01:09:59.027Z,86.54
2019-02-05T01:12:26.627Z,86.57
2019-02-05T01:14:53.843Z,86.52
2019-02-05T01:17:21.055Z,86.54
2019-02-05T01:19:50.439Z,86.49
2019-02-05T01:22:17.548Z,86.27
2019-02-05T01:24:44.640Z,86.43
2019-02-05T01:27:11.732Z,86.39
2019-02-05T01:29:41.090Z,86.32
2019-02-05T01:32:08.196Z,86.30
2019-02-05T01:34:35.421Z,86.41
2019-02-05T01:37:03.617Z,86.56
2019-02-05T01:39:32.942Z,86.61
2019-02-05T01:42:01.977Z,86.64
2019-02-05T01:44:29.155Z,86.72
2019-02-05T01:46:57.455Z,86.65
2019-02-05T01:49:26.529Z,86.83
2019-02-05T01:51:53.925Z,86.90
2019-02-05T01:54:21.133Z,87.09
2019-02-05T01:56:48.423Z,86.83
2019-02-05T01:59:17.321Z,86.68
2019-02-05T02:01:44.532Z,86.79
2019-02-05T02:04:11.681Z,87.04
2019-02-05T02:06:38.828Z,87.26
2019-02-05T02:09:06.931Z,87.20
2019-02-05T02:11:34.097Z,87.28
2019-02-05T02:14:01.435Z,87.12
2019-02-05T02:16:28.705Z,87.05
2019-02-05T02:18:55.841Z,87.02
2019-02-05T02:21:22.935Z,87.07
2019-02-05T02:23:50.052Z,87.11
2019-02-05T02:26:18.307Z,87.09
2019-02-05T02:28:45.407Z,87.06
2019-02-05T02:31:12.551Z,87.07
2019-02-05T02:33:42.761Z,86.97
2019-02-05T02:36:10.978Z,86.94
2019-02-05T02:38:39.274Z,86.94
2019-02-05T02:41:07.487Z,87.00
2019-02-05T02:43:35.159Z,86.98
2019-02-05T02:46:03.746Z,87.18
2019-02-05T02:48:31.052Z,87.43
2019-02-05T02:51:00.067Z,87.51
2019-02-05T02:53:27.157Z,87.59
2019-02-05T02:55:55.568Z,87.63
2019-02-05T02:58:22.719Z,87.69
2019-02-05T03:00:50.368Z,87.57
2019-02-05T03:03:18.580Z,87.58
2019-02-05T03:05:45.680Z,87.72
2019-02-05T03:08:13.985Z,87.98
2019-02-05T03:10:43.145Z,88.14
2019-02-05T03:13:12.032Z,88.22
2019-02-05T03:15:39.529Z,88.17
2019-02-05T03:18:06.860Z,88.28
2019-02-05T03:20:35.369Z,88.25
2019-02-05T03:23:05.388Z,88.19
2019-02-05T03:25:33.607Z,88.04
2019-02-05T03:28:00.710Z,87.92
2019-02-05T03:30:29.076Z,87.90
2019-02-05T03:35:16.561Z,87.83
2019-02-05T03:37:43.806Z,87.83
2019-02-05T03:40:40.910Z,87.84
2019-02-05T03:43:08.139Z,87.79
2019-02-05T03:45:35.231Z,87.74
2019-02-05T03:48:03.383Z,87.73
2019-02-05T03:50:32.602Z,87.67
2019-02-05T03:53:02.732Z,87.56
2019-02-05T03:56:19.045Z,87.57
2019-02-05T03:59:33.035Z,87.56
2019-02-05T04:02:41.309Z,87.85
2019-02-05T04:05:45.065Z,87.76
2019-02-05T04:08:56.770Z,87.72
2019-02-05T04:12:10.839Z,87.58
2019-02-05T04:15:10.842Z,87.63
2019-02-05T04:18:19.708Z,87.68
2019-02-05T04:21:26.553Z,87.60
2019-02-05T04:25:08.803Z,87.58
2019-02-05T04:28:21.838Z,87.71
2019-02-05T04:31:37.155Z,87.81
2019-02-05T04:34:50.734Z,87.71
2019-02-05T04:38:04.632Z,87.55
2019-02-05T04:40:50.915Z,87.65
2019-02-05T04:43:50.323Z,87.70
2019-02-05T04:46:48.017Z,87.86
2019-02-05T04:50:04.220Z,87.89
2019-02-05T04:53:07.822Z,87.82
2019-02-05T04:56:13.680Z,87.89
2019-02-05T04:59:09.053Z,87.74
2019-02-05T05:02:22.602Z,87.75
2019-02-05T05:05:31.024Z,87.62
2019-02-05T05:08:40.908Z,87.50
2019-02-05T05:11:10.076Z,87.44
2019-02-05T05:13:38.395Z,87.41
2019-02-05T05:16:06.714Z,87.34
2019-02-05T05:18:33.925Z,87.30
2019-02-05T05:21:01.902Z,87.30
2019-02-05T05:23:29.403Z,87.29
2019-02-05T05:25:57.826Z,87.37
2019-02-05T05:28:26.144Z,87.53
2019-02-05T05:30:54.140Z,87.67
2019-02-05T05:33:21.517Z,87.63
2019-02-05T05:35:48.847Z,87.67
2019-02-05T05:38:15.939Z,87.71
2019-02-05T05:40:43.034Z,87.68
2019-02-05T05:43:10.125Z,87.61
2019-02-05T05:45:37.218Z,87.58
2019-02-05T05:48:04.324Z,87.57
2019-02-05T05:50:31.702Z,87.65
2019-02-05T05:52:58.806Z,87.81
2019-02-05T05:55:25.939Z,88.03
2019-02-05T05:57:53.050Z,88.17
2019-02-05T06:00:20.245Z,88.27
2019-02-05T06:02:47.357Z,88.41
2019-02-05T06:05:16.764Z,88.36
2019-02-05T06:07:43.956Z,88.38
2019-02-05T06:10:11.647Z,88.42
2019-02-05T06:12:38.740Z,88.41
2019-02-05T06:15:07.462Z,88.32
2019-02-05T06:17:34.613Z,88.31
2019-02-05T06:20:01.752Z,88.28
2019-02-05T06:22:28.851Z,88.38
2019-02-05T06:24:56.040Z,88.52
2019-02-05T06:27:23.168Z,88.35
2019-02-05T06:29:50.356Z,88.26
2019-02-05T06:32:17.462Z,88.37
2019-02-05T06:34:44.590Z,88.44
2019-02-05T06:37:11.688Z,88.41
2019-02-05T06:39:38.797Z,88.34
2019-02-05T06:42:08.884Z,88.31
2019-02-05T06:44:35.996Z,88.35
2019-02-05T06:47:03.593Z,88.39
2019-02-05T06:49:30.715Z,88.37
2019-02-05T06:51:57.817Z,88.44
2019-02-05T06:54:24.938Z,88.46
2019-02-05T06:56:52.029Z,88.47
2019-02-05T06:59:19.165Z,88.57
2019-02-05T07:01:46.320Z,88.67
2019-02-05T07:04:13.433Z,88.57
2019-02-05T07:06:40.937Z,88.49
2019-02-05T07:09:09.156Z,88.54
2019-02-05T07:11:36.253Z,88.64
2019-02-05T07:14:04.397Z,88.67
2019-02-05T07:16:31.496Z,88.63
2019-02-05T07:18:58.825Z,88.64
2019-02-05T07:21:25.921Z,88.69
2019-02-05T07:23:53.223Z,88.71
2019-02-05T07:26:20.821Z,88.76
2019-02-05T07:28:58.206Z,88.67
2019-02-05T07:31:16.915Z,88.66
2019-02-05T07:33:44.117Z,88.62
2019-02-05T07:36:11.208Z,88.50
2019-02-05T07:38:38.347Z,88.47
2019-02-05T07:41:05.435Z,88.53
2019-02-05T07:43:32.536Z,88.50
2019-02-05T07:45:59.640Z,88.48
2019-02-05T07:48:27.042Z,88.46
2019-02-05T07:50:54.142Z,88.42
2019-02-05T07:53:21.227Z,88.52
2019-02-05T07:55:48.320Z,88.43
2019-02-05T07:58:15.452Z,88.37
2019-02-05T08:00:42.642Z,88.28
2019-02-05T08:03:09.769Z,88.33
2019-02-05T08:05:37.019Z,88.43
2019-02-05T08:08:06.428Z,88.44
2019-02-05T08:10:33.554Z,88.46
2019-02-05T08:13:01.560Z,88.35
2019-02-05T08:15:30.440Z,88.41
2019-02-05T08:17:58.877Z,88.36
2019-02-05T08:20:26.072Z,88.37
2019-02-05T08:22:53.168Z,88.38
2019-02-05T08:25:20.383Z,88.42
2019-02-05T08:27:47.477Z,88.52
2019-02-05T08:30:19.796Z,88.51
2019-02-05T08:32:46.887Z,88.41
2019-02-05T08:35:14.880Z,88.42
2019-02-05T08:37:44.186Z,88.50
2019-02-05T08:40:16.185Z,88.48
2019-02-05T08:42:46.329Z,88.59
2019-02-05T08:45:18.840Z,88.66
2019-02-05T08:47:46.146Z,88.58
2019-02-05T08:50:15.869Z,88.67
2019-02-05T08:52:44.345Z,88.75
2019-02-05T08:55:13.397Z,88.81
2019-02-05T08:57:41.804Z,88.81
2019-02-05T09:00:13.182Z,88.83
2019-02-05T09:02:41.487Z,88.80
2019-02-05T09:05:08.962Z,88.66
2019-02-05T09:07:37.956Z,88.69
2019-02-05T09:10:06.373Z,88.68
2019-02-05T09:12:34.605Z,88.63
2019-02-05T09:15:01.847Z,88.64
2019-02-05T09:17:28.955Z,88.68
2019-02-05T09:19:58.963Z,88.68
2019-02-05T09:22:27.526Z,88.61
2019-02-05T09:24:54.640Z,88.52
2019-02-05T09:27:22.865Z,88.45
2019-02-05T09:29:49.947Z,88.39
2019-02-05T09:32:17.181Z,88.41
2019-02-05T09:34:46.388Z,88.40
2019-02-05T09:37:13.488Z,88.42
2019-02-05T09:39:40.587Z,88.50
2019-02-05T09:42:08.872Z,88.31
2019-02-05T09:44:35.979Z,88.25
2019-02-05T09:47:03.175Z,88.18
2019-02-05T09:49:30.270Z,88.10
2019-02-05T09:51:57.376Z,88.10
2019-02-05T09:54:24.497Z,88.10
2019-02-05T09:56:51.628Z,88.03
2019-02-05T09:59:18.832Z,87.97
2019-02-05T10:01:47.782Z,88.03
2019-02-05T10:04:14.873Z,88.01
2019-02-05T10:06:41.975Z,87.94
2019-02-05T10:09:09.069Z,87.94
2019-02-05T10:11:36.220Z,87.89
2019-02-05T10:14:03.837Z,88.01
2019-02-05T10:16:30.926Z,88.03
2019-02-05T10:18:58.032Z,88.01
2019-02-05T10:21:26.047Z,87.97
2019-02-05T10:23:53.164Z,88.00
2019-02-05T10:26:20.266Z,87.97
2019-02-05T10:28:50.422Z,87.99
2019-02-05T10:31:17.604Z,87.96
2019-02-05T10:33:54.946Z,87.87
2019-02-05T10:36:13.718Z,87.88
2019-02-05T10:38:40.858Z,87.92
2019-02-05T10:41:09.112Z,87.95
2019-02-05T10:43:38.041Z,87.98
2019-02-05T10:46:07.101Z,88.00
2019-02-05T10:48:35.401Z,88.03
2019-02-05T10:51:03.808Z,88.03
2019-02-05T10:53:38.333Z,88.01
2019-02-05T10:56:05.333Z,88.03
2019-02-05T10:58:33.888Z,88.07
2019-02-05T11:01:01.020Z,88.07
2019-02-05T11:03:28.214Z,88.04
2019-02-05T11:05:55.537Z,87.95
2019-02-05T11:08:23.845Z,87.97
2019-02-05T11:10:52.752Z,88.03
2019-02-05T11:13:20.042Z,88.00
2019-02-05T11:15:48.696Z,88.04
2019-02-05T11:18:16.929Z,88.06
2019-02-05T11:20:52.760Z,88.04
2019-02-05T11:23:19.963Z,87.97
2019-02-05T11:25:47.076Z,87.95
2019-02-05T11:28:15.377Z,87.85
2019-02-05T11:30:43.851Z,87.89
2019-02-05T11:33:11.517Z,87.86
2019-02-05T11:35:39.871Z,87.84
2019-02-05T11:38:07.934Z,87.97
2019-02-05T11:40:35.554Z,88.01
2019-02-05T11:43:02.763Z,88.00
2019-02-05T11:45:30.291Z,87.99
2019-02-05T11:47:58.223Z,87.95
2019-02-05T11:50:25.449Z,87.91
2019-02-05T11:52:52.965Z,87.88
2019-02-05T11:55:22.202Z,87.84
2019-02-05T11:57:49.292Z,87.87
2019-02-05T12:00:37.724Z,87.87
2019-02-05T12:03:07.928Z,87.79
2019-02-05T12:05:35.224Z,87.80
2019-02-05T12:08:02.948Z,87.78
2019-02-05T12:10:31.187Z,87.75
2019-02-05T12:12:59.392Z,87.70
2019-02-05T12:15:26.488Z,87.73
2019-02-05T12:17:55.447Z,87.74
2019-02-05T12:20:22.633Z,87.74
2019-02-05T12:22:50.059Z,87.79
2019-02-05T12:25:17.881Z,87.81
2019-02-05T12:27:45.088Z,87.78
2019-02-05T12:30:20.050Z,87.78
2019-02-05T12:32:47.401Z,87.85
2019-02-05T12:35:14.681Z,87.84
2019-02-05T12:37:41.863Z,87.81
2019-02-05T12:40:10.240Z,87.84
2019-02-05T12:42:37.638Z,87.80
2019-02-05T12:45:07.588Z,87.74
2019-02-05T12:47:34.684Z,87.74
2019-02-05T12:50:01.791Z,87.58
2019-02-05T12:52:28.888Z,87.57
2019-02-05T12:54:55.988Z,87.52
2019-02-05T12:57:23.082Z,87.47
2019-02-05T12:59:50.196Z,87.45
2019-02-05T13:02:17.697Z,87.44
2019-02-05T13:04:44.819Z,87.41
2019-02-05T13:07:11.919Z,87.35
2019-02-05T13:09:39.002Z,87.34
2019-02-05T13:12:06.318Z,87.36
2019-02-05T13:14:33.458Z,87.34
2019-02-05T13:17:00.541Z,87.35
2019-02-05T13:19:27.955Z,87.35
2019-02-05T13:21:55.068Z,87.35
2019-02-05T13:24:22.172Z,87.38
2019-02-05T13:26:49.381Z,87.39
2019-02-05T13:29:16.661Z,87.45
2019-02-05T13:31:45.608Z,87.50
2019-02-05T13:34:13.818Z,87.53
2019-02-05T13:36:43.319Z,87.61
2019-02-05T13:39:12.557Z,87.64
2019-02-05T13:41:39.654Z,87.65
2019-02-05T13:44:06.820Z,87.65
2019-02-05T13:46:33.938Z,87.67
2019-02-05T13:49:03.399Z,87.65
2019-02-05T13:51:32.405Z,87.65
2019-02-05T13:53:59.614Z,87.65
2019-02-05T13:56:26.776Z,87.65
2019-02-05T13:58:53.944Z,87.66
2019-02-05T14:01:21.144Z,87.67
2019-02-05T14:03:51.040Z,87.70
2019-02-05T14:06:19.349Z,87.70
2019-02-05T14:08:46.464Z,87.69
2019-02-05T14:11:13.660Z,87.67
2019-02-05T14:13:41.812Z,87.66
2019-02-05T14:16:09.027Z,87.68
2019-02-05T14:18:37.429Z,87.69
2019-02-05T14:21:04.635Z,87.67
2019-02-05T14:23:31.847Z,87.66
2019-02-05T14:25:59.706Z,87.68
2019-02-05T14:28:30.024Z,87.71
2019-02-05T14:30:58.845Z,87.75
2019-02-05T14:33:27.754Z,87.75
2019-02-05T14:35:56.740Z,87.72
2019-02-05T14:38:24.048Z,87.70
2019-02-05T14:40:51.194Z,87.70
2019-02-05T14:43:18.955Z,87.70
2019-02-05T14:45:46.473Z,87.71
2019-02-05T14:48:14.737Z,87.71
2019-02-05T14:50:42.384Z,87.73
2019-02-05T14:53:10.291Z,87.75
2019-02-05T14:55:37.405Z,87.74
2019-02-05T14:58:06.053Z,87.74
2019-02-05T15:00:33.568Z,87.74
2019-02-05T15:03:02.100Z,87.73
2019-02-05T15:05:29.490Z,87.76
2019-02-05T15:07:56.701Z,87.80
2019-02-05T15:10:25.845Z,87.83
2019-02-05T15:12:52.953Z,87.88
2019-02-05T15:15:20.216Z,87.87
2019-02-05T15:17:47.932Z,87.79
2019-02-05T15:20:18.263Z,87.75
2019-02-05T15:22:46.437Z,87.81
2019-02-05T15:25:13.673Z,87.80
2019-02-05T15:27:40.785Z,87.84
2019-02-05T15:30:11.781Z,87.87
2019-02-05T15:33:04.287Z,87.91
2019-02-05T15:35:31.424Z,88.12
2019-02-05T15:37:59.971Z,88.07
2019-02-05T15:40:27.073Z,88.13
2019-02-05T15:42:54.313Z,88.09
2019-02-05T15:45:23.202Z,88.08
2019-02-05T15:47:52.120Z,88.09
2019-02-05T15:50:19.537Z,88.06
2019-02-05T15:52:47.861Z,88.05
2019-02-05T15:55:17.505Z,88.07
2019-02-05T15:57:46.826Z,88.07
2019-02-05T16:00:15.330Z,87.98
2019-02-05T16:02:43.765Z,87.95
2019-02-05T16:05:13.974Z,87.92
2019-02-05T16:07:42.944Z,87.96
2019-02-05T16:10:13.286Z,87.87
2019-02-05T16:12:43.297Z,87.77
2019-02-05T16:15:12.559Z,87.78
2019-02-05T16:17:39.687Z,87.79
2019-02-05T16:20:08.524Z,87.78
2019-02-05T16:22:36.853Z,87.68
2019-02-05T16:25:06.043Z,87.75
2019-02-05T16:27:33.140Z,87.71
2019-02-05T16:30:00.392Z,87.71
2019-02-05T16:32:27.836Z,87.66
2019-02-05T16:34:54.940Z,87.62
2019-02-05T16:37:22.039Z,87.64
2019-02-05T16:39:49.143Z,87.67
2019-02-05T16:42:18.163Z,87.65
2019-02-05T16:44:45.529Z,87.67
2019-02-05T16:47:14.154Z,87.66
2019-02-05T16:49:43.257Z,87.64
2019-02-05T16:52:10.433Z,87.65
2019-02-05T16:54:37.625Z,87.57
2019-02-05T16:57:04.733Z,87.55
2019-02-05T16:59:31.830Z,87.52
2019-02-05T17:01:59.127Z,87.46
2019-02-05T17:04:26.281Z,87.44
2019-02-05T17:06:56.347Z,87.42
2019-02-05T17:09:24.634Z,87.41
2019-02-05T17:11:51.724Z,87.36
2019-02-05T17:14:18.816Z,87.38
2019-02-05T17:16:47.229Z,87.31
2019-02-05T17:19:15.658Z,87.34
2019-02-05T17:21:42.906Z,87.39
2019-02-05T17:24:10.425Z,87.45
2019-02-05T17:26:37.531Z,87.40
2019-02-05T17:29:04.728Z,87.35
2019-02-05T17:31:32.940Z,87.30
2019-02-05T17:34:00.062Z,87.14
2019-02-05T17:36:27.174Z,87.14
2019-02-05T17:38:54.264Z,87.13
2019-02-05T17:41:21.667Z,87.12
2019-02-05T17:43:50.420Z,87.06
2019-02-05T17:46:18.211Z,87.04
2019-02-05T17:48:45.623Z,86.98
2019-02-05T17:51:15.232Z,86.87
2019-02-05T17:53:44.236Z,86.94
2019-02-05T17:56:11.653Z,86.95
2019-02-05T17:58:39.020Z,86.97
2019-02-05T18:01:09.661Z,87.01
2019-02-05T18:03:36.904Z,87.03
2019-02-05T18:06:05.311Z,86.93
2019-02-05T18:08:32.874Z,86.91
2019-02-05T18:11:02.073Z,86.81
2019-02-05T18:13:29.798Z,86.62
2019-02-05T18:16:00.326Z,86.45
2019-02-05T18:18:27.927Z,86.55
2019-02-05T18:20:55.175Z,86.66
2019-02-05T18:23:22.441Z,86.51
2019-02-05T18:25:49.624Z,86.38
2019-02-05T18:28:16.720Z,86.57
2019-02-05T18:30:43.946Z,86.54
2019-02-05T18:33:11.473Z,86.51
2019-02-05T18:35:43.320Z,86.07
2019-02-05T18:38:12.539Z,86.12
2019-02-05T18:40:39.712Z,86.27
2019-02-05T18:43:08.349Z,86.22
2019-02-05T18:45:35.859Z,86.10
2019-02-05T18:48:06.779Z,86.15
2019-02-05T18:50:34.106Z,85.67
2019-02-05T18:53:02.904Z,85.92
2019-02-05T18:55:30.920Z,86.10
2019-02-05T18:58:09.243Z,86.19
2019-02-05T19:00:33.645Z,86.29
2019-02-05T19:03:14.468Z,86.16
2019-02-05T19:05:41.774Z,85.95
2019-02-05T19:08:09.264Z,85.94
2019-02-05T19:10:45.856Z,85.78
2019-02-05T19:13:18.191Z,85.63
2019-02-05T19:15:47.236Z,85.70
2019-02-05T19:18:15.855Z,85.50
2019-02-05T19:20:42.991Z,85.62
2019-02-05T19:23:11.995Z,85.56
2019-02-05T19:25:50.818Z,85.58
2019-02-05T19:28:30.556Z,85.60
2019-02-05T19:31:01.495Z,85.45
2019-02-05T19:33:29.634Z,85.14
2019-02-05T19:35:57.247Z,85.39
2019-02-05T19:38:26.550Z,85.48
2019-02-05T19:40:57.659Z,85.16
2019-02-05T19:43:26.689Z,85.35
2019-02-05T19:46:18.099Z,84.99
2019-02-05T19:48:50.183Z,84.60
2019-02-05T19:51:17.365Z,84.49
2019-02-05T19:53:47.750Z,84.83
2019-02-05T19:56:15.141Z,84.74
2019-02-05T19:58:42.716Z,84.64
2019-02-05T20:01:10.197Z,84.80
2019-02-05T20:03:39.069Z,84.87
2019-02-05T20:06:06.554Z,84.46
2019-02-05T20:08:33.716Z,84.91
2019-02-05T20:11:05.617Z,85.14
2019-02-05T20:13:40.279Z,84.83
2019-02-05T20:16:04.233Z,85.04
2019-02-05T20:18:31.439Z,85.09
2019-02-05T20:20:58.643Z,85.12
2019-02-05T20:23:25.928Z,85.32
2019-02-05T20:25:53.329Z,85.35
2019-02-05T20:28:20.621Z,85.42
2019-02-05T20:30:48.054Z,85.33
2019-02-05T20:33:17.530Z,84.96
2019-02-05T20:35:45.933Z,84.75
2019-02-05T20:38:13.033Z,84.30
2019-02-05T20:40:41.425Z,83.92
2019-02-05T20:43:10.568Z,84.29
2019-02-05T20:45:51.195Z,84.56
2019-02-05T20:48:30.707Z,84.80
2019-02-05T20:51:00.712Z,84.68
2019-02-05T20:53:29.504Z,84.75
2019-02-05T20:55:56.794Z,84.67
2019-02-05T20:58:23.963Z,84.66
2019-02-05T21:00:51.071Z,84.59
2019-02-05T21:03:18.459Z,84.62
2019-02-05T21:05:46.972Z,84.72
2019-02-05T21:08:14.015Z,84.69
2019-02-05T21:10:41.125Z,84.81
2019-02-05T21:13:08.274Z,84.90
2019-02-05T21:15:35.384Z,84.97
2019-02-05T21:18:02.613Z,84.92
2019-02-05T21:20:33.300Z,84.94
2019-02-05T21:22:59.503Z,84.76
2019-02-05T21:25:26.591Z,84.88
2019-02-05T21:27:53.724Z,84.51
2019-02-05T21:30:20.872Z,84.64
2019-02-05T21:32:48.167Z,84.71
2019-02-05T21:35:15.731Z,84.51
2019-02-05T21:37:43.221Z,84.40
2019-02-05T21:40:16.480Z,84.33
2019-02-05T21:42:43.590Z,84.24
2019-02-05T21:45:16.746Z,84.26
2019-02-05T21:47:44.230Z,84.33
2019-02-05T21:50:13.410Z,84.09
2019-02-05T21:52:41.726Z,84.15
2019-02-05T21:55:09.831Z,83.95
2019-02-05T21:57:38.968Z,84.09
2019-02-05T22:00:19.230Z,84.22
2019-02-05T22:02:52.415Z,84.32
2019-02-05T22:05:22.346Z,84.41
2019-02-05T22:07:49.444Z,84.44
2019-02-05T22:10:17.548Z,84.39
2019-02-05T22:12:44.658Z,84.39
2019-02-05T22:15:12.485Z,84.05
2019-02-05T22:17:39.667Z,84.11
2019-02-05T22:20:11.786Z,84.03
2019-02-05T22:22:38.935Z,83.98
2019-02-05T22:25:09.781Z,84.18
2019-02-05T22:27:37.044Z,84.08
2019-02-05T22:30:09.087Z,84.14
2019-02-05T22:32:36.669Z,84.03
2019-02-05T22:35:04.143Z,84.16
2019-02-05T22:37:31.277Z,84.18
2019-02-05T22:39:58.369Z,84.29
2019-02-05T22:42:27.340Z,84.47
2019-02-05T22:44:54.748Z,83.60
2019-02-05T22:47:21.909Z,82.53
2019-02-05T22:49:49.004Z,82.60
2019-02-05T22:52:18.171Z,82.26
2019-02-05T22:54:47.829Z,82.31
2019-02-05T22:57:14.920Z,82.71
2019-02-05T22:59:42.460Z,82.99
2019-02-05T23:02:09.852Z,82.41
2019-02-05T23:05:06.511Z,82.59
2019-02-05T23:07:33.726Z,82.97
2019-02-05T23:10:18.493Z,83.16
2019-02-05T23:13:12.575Z,83.34
2019-02-05T23:15:44.749Z,83.01
2019-02-05T23:18:15.360Z,83.21
2019-02-05T23:20:49.147Z,83.40
2019-02-05T23:23:20.133Z,83.45
2019-02-05T23:25:50.401Z,83.44
2019-02-05T23:28:17.659Z,83.46
2019-02-05T23:30:46.794Z,83.43
2019-02-05T23:33:16.356Z,82.82
2019-02-05T23:35:47.785Z,82.71
2019-02-05T23:38:20.635Z,83.12
2019-02-05T23:40:47.818Z,82.71
2019-02-05T23:43:16.224Z,82.64
2019-02-05T23:45:45.331Z,82.24
2019-02-05T23:48:12.548Z,82.60
2019-02-05T23:50:39.861Z,82.76
2019-02-05T23:53:07.049Z,82.07
2019-02-05T23:55:35.379Z,82.05
2019-02-05T23:58:04.378Z,82.01
